createdAt,value
2022-11-23T00:01:43.811Z,3.20
2022-11-23T00:04:12.979Z,3.10
2022-11-23T00:06:42.207Z,3.10
2022-11-23T00:09:11.733Z,3.10
2022-11-23T00:11:41.570Z,3.10
2022-11-23T00:14:08.448Z,3.10
2022-11-23T00:16:36.458Z,3.10
2022-11-23T00:19:04.045Z,3.00
2022-11-23T00:21:33.187Z,3.00
2022-11-23T00:24:01.219Z,3.00
2022-11-23T00:26:28.893Z,3.00
2022-11-23T00:28:56.539Z,3.00
2022-11-23T00:31:24.885Z,3.00
2022-11-23T00:33:56.136Z,3.00
2022-11-23T00:36:25.125Z,3.00
2022-11-23T00:38:54.589Z,2.90
2022-11-23T00:41:25.227Z,3.00
2022-11-23T00:43:55.460Z,3.00
2022-11-23T00:46:25.459Z,3.00
2022-11-23T00:48:54.711Z,3.00
2022-11-23T00:51:25.957Z,3.00
2022-11-23T00:53:54.102Z,3.00
2022-11-23T00:56:21.534Z,3.00
2022-11-23T00:58:56.671Z,3.10
2022-11-23T01:01:30.984Z,3.10
2022-11-23T01:04:02.116Z,3.10
2022-11-23T01:06:35.586Z,3.10
2022-11-23T01:09:14.630Z,3.10
2022-11-23T01:11:42.535Z,3.10
2022-11-23T01:14:11.537Z,3.20
2022-11-23T01:16:41.246Z,3.20
2022-11-23T01:19:12.953Z,3.10
2022-11-23T01:21:40.789Z,3.10
2022-11-23T01:24:13.628Z,3.10
2022-11-23T01:26:42.448Z,3.10
2022-11-23T01:29:11.772Z,3.10
2022-11-23T01:31:46.246Z,3.10
2022-11-23T01:34:14.849Z,3.00
2022-11-23T01:36:44.700Z,3.10
2022-11-23T01:39:13.794Z,3.10
2022-11-23T01:41:43.415Z,3.10
2022-11-23T01:44:28.511Z,3.10
2022-11-23T01:47:01.455Z,3.10
2022-11-23T01:49:36.422Z,3.20
2022-11-23T01:52:16.555Z,3.20
2022-11-23T01:54:53.602Z,3.20
2022-11-23T01:57:25.127Z,3.20
2022-11-23T01:59:54.551Z,3.20
2022-11-23T02:02:21.632Z,3.20
2022-11-23T02:04:52.179Z,3.20
2022-11-23T02:07:21.899Z,3.30
2022-11-23T02:09:53.239Z,3.20
2022-11-23T02:12:20.834Z,3.20
2022-11-23T02:14:48.493Z,3.30
2022-11-23T02:17:16.944Z,3.20
2022-11-23T02:20:03.050Z,3.30
2022-11-23T02:22:42.271Z,3.20
2022-11-23T02:25:21.231Z,3.20
2022-11-23T02:27:50.794Z,3.20
2022-11-23T02:30:18.293Z,3.20
2022-11-23T02:32:46.215Z,3.20
2022-11-23T02:35:14.000Z,3.30
2022-11-23T02:37:43.345Z,3.20
2022-11-23T02:40:25.968Z,3.20
2022-11-23T02:42:52.868Z,3.20
2022-11-23T02:45:43.563Z,3.20
2022-11-23T02:48:11.124Z,3.20
2022-11-23T02:50:38.827Z,3.20
2022-11-23T02:53:06.579Z,3.20
2022-11-23T02:55:34.403Z,3.20
2022-11-23T02:58:02.856Z,3.20
2022-11-23T03:00:29.865Z,3.30
2022-11-23T03:03:00.250Z,3.20
2022-11-23T03:05:28.011Z,3.30
2022-11-23T03:07:56.512Z,3.30
2022-11-23T03:10:25.253Z,3.20
2022-11-23T03:12:55.655Z,3.20
2022-11-23T03:15:24.624Z,3.20
2022-11-23T03:17:52.202Z,3.20
2022-11-23T03:20:20.270Z,3.30
2022-11-23T03:22:48.131Z,3.30
2022-11-23T03:25:15.936Z,3.20
2022-11-23T03:27:43.506Z,3.20
2022-11-23T03:30:10.926Z,3.20
2022-11-23T03:32:39.901Z,3.20
2022-11-23T03:35:07.992Z,3.30
2022-11-23T03:37:35.655Z,3.30
2022-11-23T03:40:02.563Z,3.20
2022-11-23T03:42:30.884Z,3.30
2022-11-23T03:44:58.525Z,3.30
2022-11-23T03:47:25.372Z,3.30
2022-11-23T03:49:52.231Z,3.30
2022-11-23T03:52:19.773Z,3.30
2022-11-23T03:54:47.607Z,3.30
2022-11-23T03:57:15.230Z,3.30
2022-11-23T03:59:42.520Z,3.30
2022-11-23T04:02:10.126Z,3.30
2022-11-23T04:04:39.642Z,3.30
2022-11-23T04:07:07.295Z,3.30
2022-11-23T04:09:34.551Z,3.30
2022-11-23T04:12:01.517Z,3.30
2022-11-23T04:14:29.180Z,3.30
2022-11-23T04:16:56.778Z,3.30
2022-11-23T04:19:23.724Z,3.30
2022-11-23T04:21:50.569Z,3.30
2022-11-23T04:24:18.260Z,3.30
2022-11-23T04:26:45.107Z,3.30
2022-11-23T04:29:12.033Z,3.30
2022-11-23T04:31:39.146Z,3.30
2022-11-23T04:34:06.761Z,3.30
2022-11-23T04:36:33.679Z,3.30
2022-11-23T04:39:03.080Z,3.30
2022-11-23T04:41:30.798Z,3.40
2022-11-23T04:43:59.285Z,3.40
2022-11-23T04:46:27.823Z,3.40
2022-11-23T04:48:55.441Z,3.40
2022-11-23T04:51:24.012Z,3.40
2022-11-23T04:53:52.301Z,3.40
2022-11-23T04:56:19.874Z,3.40
2022-11-23T04:58:47.450Z,3.40
2022-11-23T05:01:15.022Z,3.40
2022-11-23T05:03:44.364Z,3.40
2022-11-23T05:06:11.312Z,3.40
2022-11-23T05:08:38.993Z,3.40
2022-11-23T05:11:06.744Z,3.50
2022-11-23T05:13:34.495Z,3.50
2022-11-23T05:16:02.184Z,3.50
2022-11-23T05:18:29.769Z,3.50
2022-11-23T05:20:58.304Z,3.50
2022-11-23T05:23:26.708Z,3.50
2022-11-23T05:25:55.412Z,3.50
2022-11-23T05:28:39.509Z,3.50
2022-11-23T05:31:07.825Z,3.50
2022-11-23T05:33:36.007Z,3.40
2022-11-23T05:36:03.873Z,3.40
2022-11-23T05:38:32.597Z,3.40
2022-11-23T05:41:00.183Z,3.40
2022-11-23T05:43:27.875Z,3.40
2022-11-23T05:45:58.442Z,3.40
2022-11-23T05:48:26.543Z,3.40
2022-11-23T05:50:55.151Z,3.40
2022-11-23T05:53:23.523Z,3.40
2022-11-23T05:55:50.391Z,3.50
2022-11-23T05:58:18.021Z,3.50
2022-11-23T06:00:46.376Z,3.50
2022-11-23T06:03:14.792Z,3.50
2022-11-23T06:05:41.645Z,3.50
2022-11-23T06:08:09.221Z,3.50
2022-11-23T06:10:36.113Z,3.50
2022-11-23T06:13:04.638Z,3.50
2022-11-23T06:15:32.157Z,3.50
2022-11-23T06:18:02.869Z,3.40
2022-11-23T06:20:30.972Z,3.40
2022-11-23T06:22:58.545Z,3.40
2022-11-23T06:25:27.821Z,3.40
2022-11-23T06:28:00.380Z,3.40
2022-11-23T06:30:28.965Z,3.40
2022-11-23T06:32:55.948Z,3.50
2022-11-23T06:35:24.216Z,3.50
2022-11-23T06:37:53.666Z,3.50
2022-11-23T06:40:20.716Z,3.40
2022-11-23T06:42:48.949Z,3.40
2022-11-23T06:45:16.908Z,3.40
2022-11-23T06:47:44.045Z,3.40
2022-11-23T06:50:11.181Z,3.40
2022-11-23T06:52:38.061Z,3.40
2022-11-23T06:55:07.572Z,3.50
2022-11-23T06:57:36.622Z,3.40
2022-11-23T07:00:05.511Z,3.40
2022-11-23T07:02:33.052Z,3.40
2022-11-23T07:04:59.927Z,3.50
2022-11-23T07:07:30.106Z,3.50
2022-11-23T07:09:58.078Z,3.50
2022-11-23T07:12:27.771Z,3.50
2022-11-23T07:14:55.310Z,3.50
2022-11-23T07:17:22.968Z,3.50
2022-11-23T07:19:52.442Z,3.50
2022-11-23T07:22:20.684Z,3.50
2022-11-23T07:24:49.022Z,3.50
2022-11-23T07:27:17.932Z,3.40
2022-11-23T07:29:46.900Z,3.50
2022-11-23T07:32:16.435Z,3.50
2022-11-23T07:34:44.632Z,3.40
2022-11-23T07:37:13.548Z,3.50
2022-11-23T07:39:59.992Z,3.50
2022-11-23T07:42:35.622Z,3.50
2022-11-23T07:45:07.926Z,3.50
2022-11-23T07:47:34.816Z,3.50
2022-11-23T07:50:03.693Z,3.50
2022-11-23T07:52:32.220Z,3.50
2022-11-23T07:55:00.937Z,3.50
2022-11-23T07:57:29.344Z,3.50
2022-11-23T07:59:57.638Z,3.50
2022-11-23T08:02:26.237Z,3.50
2022-11-23T08:04:55.580Z,3.50
2022-11-23T08:07:23.186Z,3.50
2022-11-23T08:09:50.860Z,3.60
2022-11-23T08:12:20.357Z,3.50
2022-11-23T08:14:47.921Z,3.50
2022-11-23T08:17:14.860Z,3.50
2022-11-23T08:19:43.084Z,3.50
2022-11-23T08:22:15.514Z,3.50
2022-11-23T08:24:43.657Z,3.50
2022-11-23T08:27:10.602Z,3.50
2022-11-23T08:29:38.209Z,3.40
2022-11-23T08:32:06.479Z,3.50
2022-11-23T08:34:37.556Z,3.50
2022-11-23T08:37:05.947Z,3.50
2022-11-23T08:39:34.162Z,3.50
2022-11-23T08:42:02.666Z,3.50
2022-11-23T08:44:31.072Z,3.50
2022-11-23T08:47:00.693Z,3.50
2022-11-23T08:49:29.006Z,3.50
2022-11-23T08:51:57.342Z,3.60
2022-11-23T08:54:27.000Z,3.60
2022-11-23T08:56:54.640Z,3.60
2022-11-23T08:59:22.852Z,3.60
2022-11-23T09:01:51.315Z,3.60
2022-11-23T09:04:20.943Z,3.70
2022-11-23T09:06:49.576Z,3.60
2022-11-23T09:09:17.096Z,3.70
2022-11-23T09:11:45.728Z,3.70
2022-11-23T09:14:13.367Z,3.70
2022-11-23T09:16:40.304Z,3.60
2022-11-23T09:19:13.291Z,3.70
2022-11-23T09:21:43.037Z,3.70
2022-11-23T09:24:12.309Z,3.70
2022-11-23T09:26:40.925Z,3.60
2022-11-23T09:29:09.160Z,3.70
2022-11-23T09:31:37.835Z,3.70
2022-11-23T09:34:05.507Z,3.60
2022-11-23T09:36:33.762Z,3.60
2022-11-23T09:39:03.026Z,3.70
2022-11-23T09:42:20.207Z,3.60
2022-11-23T09:45:05.807Z,3.60
2022-11-23T09:47:49.113Z,3.60
2022-11-23T09:50:38.904Z,3.70
2022-11-23T09:53:13.140Z,3.70
2022-11-23T09:55:46.904Z,3.60
2022-11-23T09:58:19.865Z,3.70
2022-11-23T10:01:04.205Z,3.70
2022-11-23T10:03:36.959Z,3.70
2022-11-23T10:06:20.848Z,3.70
2022-11-23T10:08:48.445Z,3.70
2022-11-23T10:11:28.264Z,3.80
2022-11-23T10:14:28.502Z,3.80
2022-11-23T10:17:14.792Z,3.80
2022-11-23T10:20:18.115Z,3.80
2022-11-23T10:22:45.704Z,3.80
2022-11-23T10:25:21.118Z,3.80
2022-11-23T10:27:50.963Z,3.80
2022-11-23T10:30:20.600Z,3.80
2022-11-23T10:32:55.011Z,3.90
2022-11-23T10:35:29.430Z,3.90
2022-11-23T10:38:18.729Z,3.90
2022-11-23T10:40:53.193Z,3.90
2022-11-23T10:43:25.935Z,4.00
2022-11-23T10:46:47.401Z,3.90
2022-11-23T10:49:35.262Z,3.90
2022-11-23T10:52:25.650Z,3.90
2022-11-23T10:54:55.449Z,3.90
2022-11-23T10:57:34.755Z,3.90
2022-11-23T11:00:11.417Z,4.00
2022-11-23T11:02:42.936Z,4.00
2022-11-23T11:06:08.177Z,4.00
2022-11-23T11:08:30.652Z,4.00
2022-11-23T11:11:21.061Z,4.00
2022-11-23T11:13:49.758Z,4.00
2022-11-23T11:16:21.920Z,4.00
2022-11-23T11:18:50.338Z,4.00
2022-11-23T11:21:35.889Z,4.10
2022-11-23T11:24:12.505Z,4.10
2022-11-23T11:26:52.711Z,4.10
2022-11-23T11:29:38.354Z,4.10
2022-11-23T11:32:31.459Z,4.10
2022-11-23T11:35:10.583Z,4.10
2022-11-23T11:38:05.488Z,4.10
2022-11-23T11:40:47.123Z,4.10
2022-11-23T11:43:42.545Z,4.10
2022-11-23T11:46:30.720Z,4.00
2022-11-23T11:49:16.313Z,4.00
2022-11-23T11:51:51.062Z,4.00
2022-11-23T11:54:44.743Z,4.00
2022-11-23T11:57:22.785Z,4.00
2022-11-23T11:59:53.188Z,4.00
2022-11-23T12:02:23.594Z,4.10
2022-11-23T12:05:14.087Z,4.10
2022-11-23T12:07:49.345Z,4.10
2022-11-23T12:10:21.247Z,4.00
2022-11-23T12:12:49.047Z,4.10
2022-11-23T12:18:17.780Z,4.00
2022-11-23T12:21:04.127Z,4.00
2022-11-23T12:24:00.042Z,3.90
2022-11-23T12:26:45.524Z,3.90
2022-11-23T12:29:37.602Z,3.90
2022-11-23T12:32:33.028Z,3.90
2022-11-23T12:35:17.712Z,3.80
2022-11-23T12:37:51.867Z,3.90
2022-11-23T12:40:44.469Z,3.80
2022-11-23T12:43:26.408Z,3.80
2022-11-23T12:46:27.820Z,3.80
2022-11-23T12:49:18.251Z,3.80
2022-11-23T12:52:00.136Z,3.70
2022-11-23T12:54:45.328Z,3.70
2022-11-23T12:57:46.952Z,3.70
2022-11-23T13:00:19.493Z,3.80
2022-11-23T13:02:56.980Z,3.80
2022-11-23T13:05:34.028Z,3.80
2022-11-23T13:08:26.590Z,3.70
2022-11-23T13:11:25.147Z,3.80
2022-11-23T13:14:10.945Z,3.80
2022-11-23T13:16:42.421Z,3.80
2022-11-23T13:19:32.249Z,3.70
2022-11-23T13:22:02.117Z,3.70
2022-11-23T13:24:35.959Z,3.70
2022-11-23T13:27:15.243Z,3.70
2022-11-23T13:29:52.284Z,3.70
2022-11-23T13:32:39.348Z,3.70
2022-11-23T13:35:21.652Z,3.70
2022-11-23T13:38:00.336Z,3.70
2022-11-23T13:40:37.758Z,3.70
2022-11-23T13:43:09.225Z,3.70
2022-11-23T13:45:39.255Z,3.60
2022-11-23T13:48:19.376Z,3.60
2022-11-23T13:51:00.189Z,3.60
2022-11-23T13:53:35.197Z,3.60
2022-11-23T13:56:43.305Z,3.60
2022-11-23T13:59:25.369Z,3.60
2022-11-23T14:02:08.780Z,3.60
2022-11-23T14:04:38.785Z,3.50
2022-11-23T14:07:26.961Z,3.60
2022-11-23T14:10:15.117Z,3.60
2022-11-23T14:12:55.236Z,3.50
2022-11-23T14:15:28.452Z,3.50
2022-11-23T14:18:25.302Z,3.50
2022-11-23T14:21:17.729Z,3.50
2022-11-23T14:24:10.021Z,3.60
2022-11-23T14:27:39.064Z,3.50
2022-11-23T14:30:13.692Z,3.50
2022-11-23T14:32:53.144Z,3.60
2022-11-23T14:35:38.594Z,3.60
2022-11-23T14:38:27.720Z,3.60
2022-11-23T14:41:12.873Z,3.60
2022-11-23T14:43:42.999Z,3.60
2022-11-23T14:46:19.954Z,3.50
2022-11-23T14:48:49.638Z,3.60
2022-11-23T14:51:19.120Z,3.60
2022-11-23T14:53:55.729Z,3.60
2022-11-23T14:56:36.507Z,3.60
2022-11-23T14:59:08.504Z,3.60
2022-11-23T15:01:37.172Z,3.60
2022-11-23T15:04:10.816Z,3.60
2022-11-23T15:06:45.932Z,3.60
2022-11-23T15:09:34.564Z,3.60
2022-11-23T15:12:08.466Z,3.60
2022-11-23T15:14:35.855Z,3.60
2022-11-23T15:17:16.976Z,3.60
2022-11-23T15:19:57.235Z,3.60
2022-11-23T15:22:25.148Z,3.50
2022-11-23T15:24:53.996Z,3.50
2022-11-23T15:27:30.116Z,3.60
2022-11-23T15:29:59.765Z,3.60
2022-11-23T15:32:32.571Z,3.60
2022-11-23T15:35:06.779Z,3.60
2022-11-23T15:37:48.704Z,3.60
2022-11-23T15:40:18.885Z,3.70
2022-11-23T15:42:49.709Z,3.60
2022-11-23T15:45:37.023Z,3.70
2022-11-23T15:48:21.833Z,3.70
2022-11-23T15:50:48.712Z,3.70
2022-11-23T15:53:15.689Z,3.70
2022-11-23T15:55:43.500Z,3.70
2022-11-23T15:58:17.028Z,3.70
2022-11-23T16:01:12.684Z,3.60
2022-11-23T16:03:40.283Z,3.60
2022-11-23T16:06:13.918Z,3.60
2022-11-23T16:08:41.401Z,3.70
2022-11-23T16:11:22.793Z,3.70
2022-11-23T16:13:50.470Z,3.70
2022-11-23T16:16:23.488Z,3.70
2022-11-23T16:18:58.535Z,3.70
2022-11-23T16:21:25.572Z,3.70
2022-11-23T16:23:57.126Z,3.70
2022-11-23T16:26:32.047Z,3.70
2022-11-23T16:29:00.701Z,3.60
2022-11-23T16:31:40.583Z,3.60
2022-11-23T16:34:16.386Z,3.60
2022-11-23T16:36:43.492Z,3.60
2022-11-23T16:39:11.474Z,3.60
2022-11-23T16:41:38.627Z,3.60
2022-11-23T16:44:06.217Z,3.60
2022-11-23T16:46:36.724Z,3.50
2022-11-23T16:49:20.568Z,3.60
2022-11-23T16:51:57.157Z,3.60
2022-11-23T16:54:25.735Z,3.60
2022-11-23T16:56:53.368Z,3.60
2022-11-23T16:59:20.305Z,3.50
2022-11-23T17:01:55.432Z,3.60
2022-11-23T17:04:25.336Z,3.60
2022-11-23T17:06:53.105Z,3.50
2022-11-23T17:09:21.397Z,3.50
2022-11-23T17:11:50.943Z,3.50
2022-11-23T17:14:19.817Z,3.60
2022-11-23T17:16:49.751Z,3.50
2022-11-23T17:19:23.200Z,3.50
2022-11-23T17:21:53.060Z,3.50
2022-11-23T17:24:20.633Z,3.50
2022-11-23T17:26:53.082Z,3.60
2022-11-23T17:29:24.184Z,3.60
2022-11-23T17:31:52.553Z,3.60
2022-11-23T17:34:19.759Z,3.60
2022-11-23T17:36:49.399Z,3.60
2022-11-23T17:39:26.062Z,3.60
2022-11-23T17:41:54.469Z,3.50
2022-11-23T17:44:22.010Z,3.60
2022-11-23T17:46:55.057Z,3.60
2022-11-23T17:49:28.171Z,3.60
2022-11-23T17:51:55.953Z,3.60
2022-11-23T17:54:24.219Z,3.60
2022-11-23T17:56:52.004Z,3.60
2022-11-23T17:59:19.813Z,3.60
2022-11-23T18:01:49.637Z,3.60
2022-11-23T18:04:17.340Z,3.60
2022-11-23T18:06:45.931Z,3.70
2022-11-23T18:09:15.197Z,3.60
2022-11-23T18:11:43.411Z,3.60
2022-11-23T18:14:11.219Z,3.60
2022-11-23T18:16:38.088Z,3.60
2022-11-23T18:19:06.026Z,3.60
2022-11-23T18:21:33.559Z,3.60
2022-11-23T18:24:04.494Z,3.70
2022-11-23T18:26:35.748Z,3.60
2022-11-23T18:29:05.244Z,3.70
2022-11-23T18:31:34.632Z,3.70
2022-11-23T18:34:04.935Z,3.60
2022-11-23T18:36:33.229Z,3.70
2022-11-23T18:39:01.887Z,3.60
2022-11-23T18:41:32.449Z,3.60
2022-11-23T18:44:00.769Z,3.70
2022-11-23T18:46:29.824Z,3.60
2022-11-23T18:48:59.676Z,3.60
2022-11-23T18:51:27.268Z,3.60
2022-11-23T18:53:55.658Z,3.60
2022-11-23T18:56:24.113Z,3.60
2022-11-23T18:58:52.304Z,3.70
2022-11-23T19:01:24.487Z,3.60
2022-11-23T19:03:53.731Z,3.60
2022-11-23T19:06:23.125Z,3.60
2022-11-23T19:08:57.486Z,3.60
2022-11-23T19:11:27.446Z,3.70
2022-11-23T19:13:58.514Z,3.70
2022-11-23T19:16:30.013Z,3.60
2022-11-23T19:19:07.194Z,3.60
2022-11-23T19:21:36.021Z,3.60
2022-11-23T19:24:04.423Z,3.60
2022-11-23T19:26:31.516Z,3.60
2022-11-23T19:28:59.489Z,3.60
2022-11-23T19:31:30.982Z,3.60
2022-11-23T19:34:01.592Z,3.60
2022-11-23T19:36:31.011Z,3.60
2022-11-23T19:39:02.997Z,3.60
2022-11-23T19:41:32.981Z,3.50
2022-11-23T19:44:02.054Z,3.60
2022-11-23T19:46:31.643Z,3.50
2022-11-23T19:49:00.110Z,3.60
2022-11-23T19:51:28.235Z,3.60
2022-11-23T19:54:00.952Z,3.60
2022-11-23T19:56:31.654Z,3.50
2022-11-23T19:59:01.215Z,3.60
2022-11-23T20:01:32.192Z,3.60
2022-11-23T20:04:08.289Z,3.60
2022-11-23T20:06:42.105Z,3.50
2022-11-23T20:09:11.376Z,3.50
2022-11-23T20:11:40.454Z,3.50
2022-11-23T20:14:08.260Z,3.60
2022-11-23T20:16:36.938Z,3.50
2022-11-23T20:19:07.124Z,3.50
2022-11-23T20:21:35.735Z,3.50
2022-11-23T20:24:08.433Z,3.50
2022-11-23T20:26:36.617Z,3.50
2022-11-23T20:29:06.055Z,3.60
2022-11-23T20:31:35.044Z,3.50
2022-11-23T20:34:07.769Z,3.50
2022-11-23T20:36:39.068Z,3.60
2022-11-23T20:39:09.853Z,3.60
2022-11-23T20:41:38.583Z,3.60
2022-11-23T20:44:12.366Z,3.60
2022-11-23T20:49:27.063Z,3.60
2022-11-23T20:51:54.590Z,3.60
2022-11-23T20:54:23.283Z,3.60
2022-11-23T20:56:50.148Z,3.60
2022-11-23T20:59:17.354Z,3.60
2022-11-23T21:01:45.262Z,3.60
2022-11-23T21:04:12.209Z,3.60
2022-11-23T21:06:40.417Z,3.60
2022-11-23T21:09:09.736Z,3.60
2022-11-23T21:11:55.890Z,3.60
2022-11-23T21:14:27.624Z,3.60
2022-11-23T21:16:58.837Z,3.60
2022-11-23T21:19:31.887Z,3.60
2022-11-23T21:22:07.300Z,3.60
2022-11-23T21:24:36.049Z,3.60
2022-11-23T21:27:05.649Z,3.60
2022-11-23T21:29:33.910Z,3.60
2022-11-23T21:32:02.256Z,3.50
2022-11-23T21:34:31.428Z,3.60
2022-11-23T21:37:00.124Z,3.60
2022-11-23T21:39:29.996Z,3.60
2022-11-23T21:41:57.864Z,3.60
2022-11-23T21:44:25.435Z,3.50
2022-11-23T21:46:57.093Z,3.60
2022-11-23T21:49:28.691Z,3.60
2022-11-23T21:51:56.280Z,3.60
2022-11-23T21:54:23.803Z,3.50
2022-11-23T21:56:52.191Z,3.50
2022-11-23T21:59:19.437Z,3.50
2022-11-23T22:01:46.325Z,3.50
2022-11-23T22:04:16.200Z,3.50
2022-11-23T22:06:46.816Z,3.50
2022-11-23T22:09:14.001Z,3.50
2022-11-23T22:11:43.828Z,3.50
2022-11-23T22:14:14.420Z,3.50
2022-11-23T22:16:44.513Z,3.40
2022-11-23T22:19:14.005Z,3.40
2022-11-23T22:21:44.801Z,3.40
2022-11-23T22:24:14.525Z,3.40
2022-11-23T22:26:43.057Z,3.40
2022-11-23T22:29:11.820Z,3.40
2022-11-23T22:31:40.371Z,3.40
2022-11-23T22:34:11.745Z,3.40
2022-11-23T22:36:39.885Z,3.40
2022-11-23T22:39:08.141Z,3.40
2022-11-23T22:41:37.501Z,3.30
2022-11-23T22:44:07.708Z,3.30
2022-11-23T22:46:37.644Z,3.30
2022-11-23T22:49:05.858Z,3.30
2022-11-23T22:51:33.138Z,3.40
2022-11-23T22:54:01.635Z,3.30
2022-11-23T22:56:31.102Z,3.40
2022-11-23T22:59:00.430Z,3.40
2022-11-23T23:01:30.533Z,3.40
2022-11-23T23:04:00.562Z,3.30
2022-11-23T23:06:30.857Z,3.40
2022-11-23T23:09:00.644Z,3.40
2022-11-23T23:11:32.293Z,3.40
2022-11-23T23:14:01.253Z,3.40
2022-11-23T23:16:30.082Z,3.40
2022-11-23T23:18:58.061Z,3.40
2022-11-23T23:21:26.261Z,3.40
2022-11-23T23:23:55.807Z,3.40
2022-11-23T23:26:26.055Z,3.40
2022-11-23T23:28:55.981Z,3.40
2022-11-23T23:31:23.658Z,3.40
2022-11-23T23:33:51.054Z,3.40
2022-11-23T23:36:21.011Z,3.40
2022-11-23T23:38:49.016Z,3.40
2022-11-23T23:41:15.875Z,3.50
2022-11-23T23:43:44.639Z,3.50
2022-11-23T23:46:13.590Z,3.50
2022-11-23T23:48:41.896Z,3.50
2022-11-23T23:51:12.856Z,3.50
2022-11-23T23:53:40.621Z,3.40
2022-11-23T23:56:13.359Z,3.50
2022-11-23T23:58:41.511Z,3.50
